sensor_id;sensor_type;location;lat;lon;timestamp;P1;durP1;ratioP1;P2;durP2;ratioP2
21593;SDS011;10959;51.328;7.322;2023-06-19T00:00:37;4.30;;;3.33;;
21593;SDS011;10959;51.328;7.322;2023-06-19T00:03:04;4.03;;;3.45;;
21593;SDS011;10959;51.328;7.322;2023-06-19T00:05:31;3.78;;;3.47;;
21593;SDS011;10959;51.328;7.322;2023-06-19T00:07:57;4.10;;;3.70;;
21593;SDS011;10959;51.328;7.322;2023-06-19T00:10:25;4.28;;;3.97;;
21593;SDS011;10959;51.328;7.322;2023-06-19T00:12:52;3.78;;;3.47;;
21593;SDS011;10959;51.328;7.322;2023-06-19T00:15:18;4.00;;;3.70;;
21593;SDS011;10959;51.328;7.322;2023-06-19T00:17:45;3.63;;;3.28;;
21593;SDS011;10959;51.328;7.322;2023-06-19T00:20:11;3.67;;;3.38;;
21593;SDS011;10959;51.328;7.322;2023-06-19T00:22:38;4.07;;;3.70;;
21593;SDS011;10959;51.328;7.322;2023-06-19T00:25:05;4.85;;;3.05;;
21593;SDS011;10959;51.328;7.322;2023-06-19T00:27:33;3.70;;;3.40;;
21593;SDS011;10959;51.328;7.322;2023-06-19T00:30:00;3.65;;;3.35;;
21593;SDS011;10959;51.328;7.322;2023-06-19T00:32:28;3.88;;;3.55;;
21593;SDS011;10959;51.328;7.322;2023-06-19T00:34:57;3.08;;;2.88;;
21593;SDS011;10959;51.328;7.322;2023-06-19T00:37:25;3.72;;;3.42;;
21593;SDS011;10959;51.328;7.322;2023-06-19T00:39:57;5.90;;;3.45;;
21593;SDS011;10959;51.328;7.322;2023-06-19T00:42:23;23.67;;;5.10;;
21593;SDS011;10959;51.328;7.322;2023-06-19T00:44:54;3.42;;;3.13;;
21593;SDS011;10959;51.328;7.322;2023-06-19T00:47:20;3.58;;;3.28;;
21593;SDS011;10959;51.328;7.322;2023-06-19T00:49:50;3.33;;;3.03;;
21593;SDS011;10959;51.328;7.322;2023-06-19T00:52:17;3.50;;;3.20;;
21593;SDS011;10959;51.328;7.322;2023-06-19T00:54:43;3.65;;;3.20;;
21593;SDS011;10959;51.328;7.322;2023-06-19T00:57:10;3.88;;;3.40;;
21593;SDS011;10959;51.328;7.322;2023-06-19T00:59:37;3.72;;;3.42;;
21593;SDS011;10959;51.328;7.322;2023-06-19T01:02:05;3.42;;;3.00;;
21593;SDS011;10959;51.328;7.322;2023-06-19T01:04:32;4.20;;;3.47;;
21593;SDS011;10959;51.328;7.322;2023-06-19T01:07:00;3.70;;;3.40;;
21593;SDS011;10959;51.328;7.322;2023-06-19T01:09:36;3.97;;;3.40;;
21593;SDS011;10959;51.328;7.322;2023-06-19T01:12:10;4.05;;;3.30;;
21593;SDS011;10959;51.328;7.322;2023-06-19T01:14:49;4.05;;;3.75;;
21593;SDS011;10959;51.328;7.322;2023-06-19T01:17:21;3.40;;;3.10;;
21593;SDS011;10959;51.328;7.322;2023-06-19T01:19:48;4.15;;;3.35;;
21593;SDS011;10959;51.328;7.322;2023-06-19T01:22:23;3.70;;;3.40;;
21593;SDS011;10959;51.328;7.322;2023-06-19T01:24:51;3.58;;;3.28;;
21593;SDS011;10959;51.328;7.322;2023-06-19T01:27:17;3.70;;;3.40;;
21593;SDS011;10959;51.328;7.322;2023-06-19T01:29:44;3.50;;;3.13;;
21593;SDS011;10959;51.328;7.322;2023-06-19T01:32:13;4.20;;;3.80;;
21593;SDS011;10959;51.328;7.322;2023-06-19T01:34:43;4.28;;;3.88;;
21593;SDS011;10959;51.328;7.322;2023-06-19T01:37:12;4.22;;;3.85;;
21593;SDS011;10959;51.328;7.322;2023-06-19T01:39:42;4.18;;;3.85;;
21593;SDS011;10959;51.328;7.322;2023-06-19T01:42:13;4.28;;;3.88;;
21593;SDS011;10959;51.328;7.322;2023-06-19T01:44:41;4.45;;;4.05;;
21593;SDS011;10959;51.328;7.322;2023-06-19T01:47:09;4.85;;;4.38;;
21593;SDS011;10959;51.328;7.322;2023-06-19T01:49:36;4.97;;;3.97;;
21593;SDS011;10959;51.328;7.322;2023-06-19T01:52:03;4.95;;;4.43;;
21593;SDS011;10959;51.328;7.322;2023-06-19T01:54:31;4.50;;;4.20;;
21593;SDS011;10959;51.328;7.322;2023-06-19T01:56:59;4.75;;;4.35;;
21593;SDS011;10959;51.328;7.322;2023-06-19T01:59:25;4.32;;;3.92;;
21593;SDS011;10959;51.328;7.322;2023-06-19T02:01:52;5.72;;;4.43;;
21593;SDS011;10959;51.328;7.322;2023-06-19T02:04:18;4.70;;;4.25;;
21593;SDS011;10959;51.328;7.322;2023-06-19T02:06:45;4.45;;;4.05;;
21593;SDS011;10959;51.328;7.322;2023-06-19T02:09:11;4.80;;;4.30;;
21593;SDS011;10959;51.328;7.322;2023-06-19T02:11:38;4.80;;;4.35;;
21593;SDS011;10959;51.328;7.322;2023-06-19T02:14:06;4.88;;;4.47;;
21593;SDS011;10959;51.328;7.322;2023-06-19T02:16:33;4.57;;;4.18;;
21593;SDS011;10959;51.328;7.322;2023-06-19T02:18:59;4.65;;;4.25;;
21593;SDS011;10959;51.328;7.322;2023-06-19T02:21:26;4.50;;;4.10;;
21593;SDS011;10959;51.328;7.322;2023-06-19T02:23:53;4.05;;;3.75;;
21593;SDS011;10959;51.328;7.322;2023-06-19T02:26:20;4.00;;;3.60;;
21593;SDS011;10959;51.328;7.322;2023-06-19T02:28:48;3.75;;;3.45;;
21593;SDS011;10959;51.328;7.322;2023-06-19T02:31:16;4.03;;;3.72;;
21593;SDS011;10959;51.328;7.322;2023-06-19T02:33:43;4.40;;;4.00;;
21593;SDS011;10959;51.328;7.322;2023-06-19T02:36:10;5.78;;;4.38;;
21593;SDS011;10959;51.328;7.322;2023-06-19T02:38:36;4.47;;;4.07;;
21593;SDS011;10959;51.328;7.322;2023-06-19T02:41:02;4.45;;;4.03;;
21593;SDS011;10959;51.328;7.322;2023-06-19T02:43:29;4.57;;;4.18;;
21593;SDS011;10959;51.328;7.322;2023-06-19T02:45:56;4.35;;;3.95;;
21593;SDS011;10959;51.328;7.322;2023-06-19T02:48:24;5.25;;;4.22;;
21593;SDS011;10959;51.328;7.322;2023-06-19T02:50:51;4.63;;;4.22;;
21593;SDS011;10959;51.328;7.322;2023-06-19T02:53:17;4.43;;;4.13;;
21593;SDS011;10959;51.328;7.322;2023-06-19T02:55:44;4.63;;;4.22;;
21593;SDS011;10959;51.328;7.322;2023-06-19T02:58:10;4.68;;;4.28;;
21593;SDS011;10959;51.328;7.322;2023-06-19T03:00:37;4.70;;;4.30;;
21593;SDS011;10959;51.328;7.322;2023-06-19T03:03:04;4.30;;;3.72;;
21593;SDS011;10959;51.328;7.322;2023-06-19T03:05:32;4.40;;;4.00;;
21593;SDS011;10959;51.328;7.322;2023-06-19T03:07:59;4.45;;;3.70;;
21593;SDS011;10959;51.328;7.322;2023-06-19T03:10:27;4.28;;;3.88;;
21593;SDS011;10959;51.328;7.322;2023-06-19T03:12:54;4.90;;;4.05;;
21593;SDS011;10959;51.328;7.322;2023-06-19T03:15:20;5.30;;;4.57;;
21593;SDS011;10959;51.328;7.322;2023-06-19T03:17:47;6.47;;;3.95;;
21593;SDS011;10959;51.328;7.322;2023-06-19T03:20:13;5.32;;;4.00;;
21593;SDS011;10959;51.328;7.322;2023-06-19T03:22:41;4.35;;;3.95;;
21593;SDS011;10959;51.328;7.322;2023-06-19T03:25:08;4.25;;;3.83;;
21593;SDS011;10959;51.328;7.322;2023-06-19T03:27:35;4.80;;;4.40;;
21593;SDS011;10959;51.328;7.322;2023-06-19T03:30:02;3.55;;;3.22;;
21593;SDS011;10959;51.328;7.322;2023-06-19T03:32:31;4.03;;;3.65;;
21593;SDS011;10959;51.328;7.322;2023-06-19T03:34:58;4.20;;;3.50;;
21593;SDS011;10959;51.328;7.322;2023-06-19T03:37:25;3.35;;;3.05;;
21593;SDS011;10959;51.328;7.322;2023-06-19T03:39:53;3.80;;;3.33;;
21593;SDS011;10959;51.328;7.322;2023-06-19T03:42:22;3.83;;;3.42;;
21593;SDS011;10959;51.328;7.322;2023-06-19T03:44:48;3.72;;;3.20;;
21593;SDS011;10959;51.328;7.322;2023-06-19T03:47:16;4.10;;;3.70;;
21593;SDS011;10959;51.328;7.322;2023-06-19T03:49:42;3.38;;;3.10;;
21593;SDS011;10959;51.328;7.322;2023-06-19T03:52:09;3.90;;;3.40;;
21593;SDS011;10959;51.328;7.322;2023-06-19T03:54:36;3.50;;;3.20;;
21593;SDS011;10959;51.328;7.322;2023-06-19T03:57:04;3.35;;;3.05;;
21593;SDS011;10959;51.328;7.322;2023-06-19T03:59:36;4.43;;;3.13;;
21593;SDS011;10959;51.328;7.322;2023-06-19T04:02:03;3.20;;;2.90;;
21593;SDS011;10959;51.328;7.322;2023-06-19T04:04:30;3.22;;;2.92;;
21593;SDS011;10959;51.328;7.322;2023-06-19T04:06:57;3.65;;;3.33;;
21593;SDS011;10959;51.328;7.322;2023-06-19T04:09:26;2.95;;;2.50;;
21593;SDS011;10959;51.328;7.322;2023-06-19T04:11:52;5.95;;;3.03;;
21593;SDS011;10959;51.328;7.322;2023-06-19T04:14:20;2.65;;;2.45;;
21593;SDS011;10959;51.328;7.322;2023-06-19T04:16:49;3.03;;;2.83;;
21593;SDS011;10959;51.328;7.322;2023-06-19T04:19:15;2.90;;;2.60;;
21593;SDS011;10959;51.328;7.322;2023-06-19T04:21:41;3.13;;;2.58;;
21593;SDS011;10959;51.328;7.322;2023-06-19T04:24:08;3.05;;;2.50;;
21593;SDS011;10959;51.328;7.322;2023-06-19T04:26:35;3.63;;;2.78;;
21593;SDS011;10959;51.328;7.322;2023-06-19T04:29:02;3.78;;;2.50;;
21593;SDS011;10959;51.328;7.322;2023-06-19T04:31:31;3.20;;;2.88;;
21593;SDS011;10959;51.328;7.322;2023-06-19T04:33:58;3.15;;;2.75;;
21593;SDS011;10959;51.328;7.322;2023-06-19T04:36:25;3.17;;;2.88;;
21593;SDS011;10959;51.328;7.322;2023-06-19T04:38:51;3.08;;;2.83;;
21593;SDS011;10959;51.328;7.322;2023-06-19T04:41:18;3.70;;;2.80;;
21593;SDS011;10959;51.328;7.322;2023-06-19T04:43:45;6.32;;;3.10;;
21593;SDS011;10959;51.328;7.322;2023-06-19T04:46:11;2.78;;;2.58;;
21593;SDS011;10959;51.328;7.322;2023-06-19T04:48:39;2.85;;;2.60;;
21593;SDS011;10959;51.328;7.322;2023-06-19T04:51:06;2.95;;;2.60;;
21593;SDS011;10959;51.328;7.322;2023-06-19T04:53:32;4.93;;;2.63;;
21593;SDS011;10959;51.328;7.322;2023-06-19T04:55:59;2.65;;;2.45;;
21593;SDS011;10959;51.328;7.322;2023-06-19T04:58:25;2.72;;;2.33;;
21593;SDS011;10959;51.328;7.322;2023-06-19T05:00:52;2.88;;;2.47;;
21593;SDS011;10959;51.328;7.322;2023-06-19T05:03:19;3.25;;;2.38;;
21593;SDS011;10959;51.328;7.322;2023-06-19T05:05:48;2.97;;;2.45;;
21593;SDS011;10959;51.328;7.322;2023-06-19T05:08:15;2.55;;;2.35;;
21593;SDS011;10959;51.328;7.322;2023-06-19T05:10:41;2.33;;;2.10;;
21593;SDS011;10959;51.328;7.322;2023-06-19T05:13:08;2.45;;;2.25;;
21593;SDS011;10959;51.328;7.322;2023-06-19T05:15:34;4.18;;;2.70;;
21593;SDS011;10959;51.328;7.322;2023-06-19T05:18:00;5.55;;;2.40;;
21593;SDS011;10959;51.328;7.322;2023-06-19T05:20:28;3.20;;;2.20;;
21593;SDS011;10959;51.328;7.322;2023-06-19T05:22:55;2.80;;;2.20;;
21593;SDS011;10959;51.328;7.322;2023-06-19T05:25:22;2.60;;;2.40;;
21593;SDS011;10959;51.328;7.322;2023-06-19T05:27:48;2.25;;;2.05;;
21593;SDS011;10959;51.328;7.322;2023-06-19T05:30:15;2.85;;;2.40;;
21593;SDS011;10959;51.328;7.322;2023-06-19T05:32:41;2.60;;;2.20;;
21593;SDS011;10959;51.328;7.322;2023-06-19T05:35:08;4.60;;;2.25;;
21593;SDS011;10959;51.328;7.322;2023-06-19T05:37:34;2.80;;;2.33;;
21593;SDS011;10959;51.328;7.322;2023-06-19T05:40:02;3.88;;;2.65;;
21593;SDS011;10959;51.328;7.322;2023-06-19T05:42:29;4.38;;;2.38;;
21593;SDS011;10959;51.328;7.322;2023-06-19T05:44:55;2.35;;;2.13;;
21593;SDS011;10959;51.328;7.322;2023-06-19T05:47:21;2.47;;;2.22;;
21593;SDS011;10959;51.328;7.322;2023-06-19T05:49:50;2.92;;;2.22;;
21593;SDS011;10959;51.328;7.322;2023-06-19T05:52:17;2.33;;;1.90;;
21593;SDS011;10959;51.328;7.322;2023-06-19T05:54:43;3.20;;;2.03;;
21593;SDS011;10959;51.328;7.322;2023-06-19T05:57:11;2.58;;;2.03;;
21593;SDS011;10959;51.328;7.322;2023-06-19T05:59:37;2.10;;;1.80;;
21593;SDS011;10959;51.328;7.322;2023-06-19T06:02:04;3.83;;;2.13;;
21593;SDS011;10959;51.328;7.322;2023-06-19T06:04:31;4.00;;;2.03;;
21593;SDS011;10959;51.328;7.322;2023-06-19T06:06:57;2.78;;;1.92;;
21593;SDS011;10959;51.328;7.322;2023-06-19T06:09:24;1.60;;;1.50;;
21593;SDS011;10959;51.328;7.322;2023-06-19T06:11:50;3.30;;;1.60;;
21593;SDS011;10959;51.328;7.322;2023-06-19T06:14:18;1.63;;;1.52;;
21593;SDS011;10959;51.328;7.322;2023-06-19T06:16:44;4.20;;;1.85;;
21593;SDS011;10959;51.328;7.322;2023-06-19T06:19:10;1.70;;;1.60;;
21593;SDS011;10959;51.328;7.322;2023-06-19T06:21:37;3.42;;;1.67;;
21593;SDS011;10959;51.328;7.322;2023-06-19T06:24:04;2.10;;;1.90;;
21593;SDS011;10959;51.328;7.322;2023-06-19T06:26:31;1.95;;;1.63;;
21593;SDS011;10959;51.328;7.322;2023-06-19T06:28:58;2.28;;;2.00;;
21593;SDS011;10959;51.328;7.322;2023-06-19T06:31:26;2.58;;;2.05;;
21593;SDS011;10959;51.328;7.322;2023-06-19T06:33:52;1.75;;;1.65;;
21593;SDS011;10959;51.328;7.322;2023-06-19T06:36:18;1.75;;;1.60;;
21593;SDS011;10959;51.328;7.322;2023-06-19T06:38:45;1.70;;;1.60;;
21593;SDS011;10959;51.328;7.322;2023-06-19T06:41:11;1.52;;;1.27;;
21593;SDS011;10959;51.328;7.322;2023-06-19T06:43:40;1.77;;;1.60;;
21593;SDS011;10959;51.328;7.322;2023-06-19T06:46:07;2.55;;;1.75;;
21593;SDS011;10959;51.328;7.322;2023-06-19T06:48:35;1.92;;;1.42;;
21593;SDS011;10959;51.328;7.322;2023-06-19T06:51:01;1.90;;;1.70;;
21593;SDS011;10959;51.328;7.322;2023-06-19T06:53:28;1.83;;;1.65;;
21593;SDS011;10959;51.328;7.322;2023-06-19T06:55:56;2.08;;;1.50;;
21593;SDS011;10959;51.328;7.322;2023-06-19T06:58:24;1.77;;;1.45;;
21593;SDS011;10959;51.328;7.322;2023-06-19T07:00:50;1.60;;;1.50;;
21593;SDS011;10959;51.328;7.322;2023-06-19T07:03:18;1.85;;;1.50;;
21593;SDS011;10959;51.328;7.322;2023-06-19T07:05:46;1.85;;;1.50;;
21593;SDS011;10959;51.328;7.322;2023-06-19T07:08:13;2.67;;;1.50;;
21593;SDS011;10959;51.328;7.322;2023-06-19T07:10:40;3.08;;;1.48;;
21593;SDS011;10959;51.328;7.322;2023-06-19T07:13:06;1.60;;;1.50;;
21593;SDS011;10959;51.328;7.322;2023-06-19T07:15:33;1.33;;;1.20;;
21593;SDS011;10959;51.328;7.322;2023-06-19T07:17:59;2.85;;;1.50;;
21593;SDS011;10959;51.328;7.322;2023-06-19T07:20:26;1.67;;;1.27;;
21593;SDS011;10959;51.328;7.322;2023-06-19T07:22:53;1.48;;;1.38;;
21593;SDS011;10959;51.328;7.322;2023-06-19T07:25:20;1.92;;;1.50;;
21593;SDS011;10959;51.328;7.322;2023-06-19T07:27:49;3.45;;;1.52;;
21593;SDS011;10959;51.328;7.322;2023-06-19T07:30:16;2.17;;;1.70;;
21593;SDS011;10959;51.328;7.322;2023-06-19T07:32:43;2.83;;;1.40;;
21593;SDS011;10959;51.328;7.322;2023-06-19T07:35:09;1.40;;;1.30;;
21593;SDS011;10959;51.328;7.322;2023-06-19T07:37:36;1.67;;;1.45;;
21593;SDS011;10959;51.328;7.322;2023-06-19T07:40:04;2.53;;;1.33;;
21593;SDS011;10959;51.328;7.322;2023-06-19T07:42:31;1.67;;;1.35;;
21593;SDS011;10959;51.328;7.322;2023-06-19T07:44:57;1.95;;;1.08;;
21593;SDS011;10959;51.328;7.322;2023-06-19T07:47:26;2.42;;;1.13;;
21593;SDS011;10959;51.328;7.322;2023-06-19T07:49:53;2.28;;;1.08;;
21593;SDS011;10959;51.328;7.322;2023-06-19T07:52:19;2.38;;;1.63;;
21593;SDS011;10959;51.328;7.322;2023-06-19T07:54:50;1.48;;;1.38;;
21593;SDS011;10959;51.328;7.322;2023-06-19T07:57:19;1.25;;;1.15;;
21593;SDS011;10959;51.328;7.322;2023-06-19T07:59:46;1.52;;;1.40;;
21593;SDS011;10959;51.328;7.322;2023-06-19T08:02:12;2.08;;;1.40;;
21593;SDS011;10959;51.328;7.322;2023-06-19T08:04:39;2.70;;;1.52;;
21593;SDS011;10959;51.328;7.322;2023-06-19T08:07:05;1.85;;;1.20;;
21593;SDS011;10959;51.328;7.322;2023-06-19T08:09:32;1.80;;;1.33;;
21593;SDS011;10959;51.328;7.322;2023-06-19T08:11:59;1.60;;;1.45;;
21593;SDS011;10959;51.328;7.322;2023-06-19T08:14:26;1.85;;;1.45;;
21593;SDS011;10959;51.328;7.322;2023-06-19T08:16:54;1.75;;;1.45;;
21593;SDS011;10959;51.328;7.322;2023-06-19T08:19:20;1.50;;;1.40;;
21593;SDS011;10959;51.328;7.322;2023-06-19T08:21:47;1.88;;;1.58;;
21593;SDS011;10959;51.328;7.322;2023-06-19T08:24:13;2.22;;;1.95;;
21593;SDS011;10959;51.328;7.322;2023-06-19T08:26:39;2.72;;;1.75;;
21593;SDS011;10959;51.328;7.322;2023-06-19T08:29:06;1.35;;;1.20;;
21593;SDS011;10959;51.328;7.322;2023-06-19T08:31:33;1.60;;;1.50;;
21593;SDS011;10959;51.328;7.322;2023-06-19T08:34:00;2.05;;;1.30;;
21593;SDS011;10959;51.328;7.322;2023-06-19T08:36:31;3.17;;;1.83;;
21593;SDS011;10959;51.328;7.322;2023-06-19T08:38:59;3.65;;;1.73;;
21593;SDS011;10959;51.328;7.322;2023-06-19T08:41:25;2.03;;;1.70;;
21593;SDS011;10959;51.328;7.322;2023-06-19T08:43:52;2.60;;;1.50;;
21593;SDS011;10959;51.328;7.322;2023-06-19T08:46:18;2.95;;;1.60;;
21593;SDS011;10959;51.328;7.322;2023-06-19T08:48:46;2.95;;;1.92;;
21593;SDS011;10959;51.328;7.322;2023-06-19T08:51:12;2.80;;;1.83;;
21593;SDS011;10959;51.328;7.322;2023-06-19T08:53:44;2.17;;;1.98;;
21593;SDS011;10959;51.328;7.322;2023-06-19T08:56:11;2.70;;;1.67;;
21593;SDS011;10959;51.328;7.322;2023-06-19T08:58:38;2.35;;;1.38;;
21593;SDS011;10959;51.328;7.322;2023-06-19T09:01:04;2.65;;;1.80;;
21593;SDS011;10959;51.328;7.322;2023-06-19T09:03:31;5.68;;;1.60;;
21593;SDS011;10959;51.328;7.322;2023-06-19T09:06:00;2.63;;;1.52;;
21593;SDS011;10959;51.328;7.322;2023-06-19T09:08:29;2.95;;;1.70;;
21593;SDS011;10959;51.328;7.322;2023-06-19T09:10:56;2.80;;;1.88;;
21593;SDS011;10959;51.328;7.322;2023-06-19T09:13:23;3.53;;;1.58;;
21593;SDS011;10959;51.328;7.322;2023-06-19T09:15:56;3.80;;;1.70;;
21593;SDS011;10959;51.328;7.322;2023-06-19T09:18:24;1.88;;;1.60;;
21593;SDS011;10959;51.328;7.322;2023-06-19T09:20:52;3.20;;;1.60;;
21593;SDS011;10959;51.328;7.322;2023-06-19T09:23:21;1.48;;;1.15;;
21593;SDS011;10959;51.328;7.322;2023-06-19T09:25:48;3.88;;;1.60;;
21593;SDS011;10959;51.328;7.322;2023-06-19T09:28:19;5.47;;;1.98;;
21593;SDS011;10959;51.328;7.322;2023-06-19T09:30:53;2.17;;;1.60;;
21593;SDS011;10959;51.328;7.322;2023-06-19T09:33:21;2.63;;;1.52;;
21593;SDS011;10959;51.328;7.322;2023-06-19T09:35:48;2.80;;;1.85;;
21593;SDS011;10959;51.328;7.322;2023-06-19T09:38:16;3.13;;;1.98;;
21593;SDS011;10959;51.328;7.322;2023-06-19T09:40:44;4.13;;;1.85;;
21593;SDS011;10959;51.328;7.322;2023-06-19T09:43:12;4.00;;;2.05;;
21593;SDS011;10959;51.328;7.322;2023-06-19T09:45:44;2.38;;;2.00;;
21593;SDS011;10959;51.328;7.322;2023-06-19T09:48:14;3.33;;;2.08;;
21593;SDS011;10959;51.328;7.322;2023-06-19T09:50:44;2.78;;;1.80;;
21593;SDS011;10959;51.328;7.322;2023-06-19T09:53:14;3.33;;;1.83;;
21593;SDS011;10959;51.328;7.322;2023-06-19T09:55:41;2.25;;;1.70;;
21593;SDS011;10959;51.328;7.322;2023-06-19T09:58:09;2.63;;;1.90;;
21593;SDS011;10959;51.328;7.322;2023-06-19T10:00:36;2.65;;;1.83;;
21593;SDS011;10959;51.328;7.322;2023-06-19T10:03:03;2.22;;;1.80;;
21593;SDS011;10959;51.328;7.322;2023-06-19T10:05:30;3.35;;;1.98;;
21593;SDS011;10959;51.328;7.322;2023-06-19T10:07:57;3.60;;;2.15;;
21593;SDS011;10959;51.328;7.322;2023-06-19T10:10:27;2.65;;;2.00;;
21593;SDS011;10959;51.328;7.322;2023-06-19T10:12:54;3.33;;;1.90;;
21593;SDS011;10959;51.328;7.322;2023-06-19T10:15:25;3.70;;;1.88;;
21593;SDS011;10959;51.328;7.322;2023-06-19T10:17:53;4.93;;;2.10;;
21593;SDS011;10959;51.328;7.322;2023-06-19T10:20:26;2.60;;;2.13;;
21593;SDS011;10959;51.328;7.322;2023-06-19T10:22:57;2.60;;;2.25;;
21593;SDS011;10959;51.328;7.322;2023-06-19T10:25:28;3.00;;;2.25;;
21593;SDS011;10959;51.328;7.322;2023-06-19T10:27:56;5.32;;;2.42;;
21593;SDS011;10959;51.328;7.322;2023-06-19T10:30:24;3.60;;;2.03;;
21593;SDS011;10959;51.328;7.322;2023-06-19T10:32:51;2.60;;;2.40;;
21593;SDS011;10959;51.328;7.322;2023-06-19T10:35:18;2.75;;;2.13;;
21593;SDS011;10959;51.328;7.322;2023-06-19T10:37:47;2.90;;;2.25;;
21593;SDS011;10959;51.328;7.322;2023-06-19T10:40:13;3.08;;;2.25;;
21593;SDS011;10959;51.328;7.322;2023-06-19T10:42:40;3.00;;;2.00;;
21593;SDS011;10959;51.328;7.322;2023-06-19T10:45:07;4.60;;;2.70;;
21593;SDS011;10959;51.328;7.322;2023-06-19T10:47:38;4.10;;;2.83;;
21593;SDS011;10959;51.328;7.322;2023-06-19T10:50:09;3.42;;;2.53;;
21593;SDS011;10959;51.328;7.322;2023-06-19T10:52:36;2.88;;;2.25;;
21593;SDS011;10959;51.328;7.322;2023-06-19T10:55:03;2.88;;;2.50;;
21593;SDS011;10959;51.328;7.322;2023-06-19T10:57:30;2.72;;;2.42;;
21593;SDS011;10959;51.328;7.322;2023-06-19T10:59:57;2.70;;;2.35;;
21593;SDS011;10959;51.328;7.322;2023-06-19T11:02:24;2.40;;;2.20;;
21593;SDS011;10959;51.328;7.322;2023-06-19T11:04:53;3.25;;;2.72;;
21593;SDS011;10959;51.328;7.322;2023-06-19T11:07:20;2.75;;;2.55;;
21593;SDS011;10959;51.328;7.322;2023-06-19T11:09:48;3.20;;;2.83;;
21593;SDS011;10959;51.328;7.322;2023-06-19T11:12:18;4.43;;;3.03;;
21593;SDS011;10959;51.328;7.322;2023-06-19T11:14:45;3.22;;;2.75;;
21593;SDS011;10959;51.328;7.322;2023-06-19T11:17:12;3.38;;;2.70;;
21593;SDS011;10959;51.328;7.322;2023-06-19T11:19:38;2.90;;;2.53;;
21593;SDS011;10959;51.328;7.322;2023-06-19T11:22:08;5.80;;;2.88;;
21593;SDS011;10959;51.328;7.322;2023-06-19T11:24:35;3.50;;;2.30;;
21593;SDS011;10959;51.328;7.322;2023-06-19T11:27:01;3.25;;;2.50;;
21593;SDS011;10959;51.328;7.322;2023-06-19T11:29:30;3.80;;;2.63;;
21593;SDS011;10959;51.328;7.322;2023-06-19T11:32:04;4.72;;;3.13;;
21593;SDS011;10959;51.328;7.322;2023-06-19T11:34:32;5.80;;;3.03;;
21593;SDS011;10959;51.328;7.322;2023-06-19T11:37:01;2.55;;;2.35;;
21593;SDS011;10959;51.328;7.322;2023-06-19T11:39:30;3.30;;;3.00;;
21593;SDS011;10959;51.328;7.322;2023-06-19T11:41:58;4.78;;;2.60;;
21593;SDS011;10959;51.328;7.322;2023-06-19T11:44:25;3.22;;;2.92;;
21593;SDS011;10959;51.328;7.322;2023-06-19T11:46:51;3.20;;;2.90;;
21593;SDS011;10959;51.328;7.322;2023-06-19T11:49:22;4.18;;;2.78;;
21593;SDS011;10959;51.328;7.322;2023-06-19T11:51:49;3.38;;;2.67;;
21593;SDS011;10959;51.328;7.322;2023-06-19T11:54:15;4.78;;;2.80;;
21593;SDS011;10959;51.328;7.322;2023-06-19T11:56:44;4.15;;;3.13;;
21593;SDS011;10959;51.328;7.322;2023-06-19T11:59:10;3.03;;;2.50;;
21593;SDS011;10959;51.328;7.322;2023-06-19T12:01:37;4.50;;;2.72;;
21593;SDS011;10959;51.328;7.322;2023-06-19T12:04:03;3.28;;;2.97;;
21593;SDS011;10959;51.328;7.322;2023-06-19T12:06:30;3.35;;;3.05;;
21593;SDS011;10959;51.328;7.322;2023-06-19T12:08:57;5.45;;;3.03;;
21593;SDS011;10959;51.328;7.322;2023-06-19T12:11:24;5.97;;;3.20;;
21593;SDS011;10959;51.328;7.322;2023-06-19T12:13:51;4.65;;;2.78;;
21593;SDS011;10959;51.328;7.322;2023-06-19T12:16:21;2.88;;;2.65;;
21593;SDS011;10959;51.328;7.322;2023-06-19T12:18:47;3.55;;;3.25;;
21593;SDS011;10959;51.328;7.322;2023-06-19T12:21:14;2.80;;;2.55;;
21593;SDS011;10959;51.328;7.322;2023-06-19T12:23:40;3.38;;;3.03;;
21593;SDS011;10959;51.328;7.322;2023-06-19T12:26:06;3.17;;;2.67;;
21593;SDS011;10959;51.328;7.322;2023-06-19T12:28:33;3.55;;;3.22;;
21593;SDS011;10959;51.328;7.322;2023-06-19T12:31:01;5.07;;;3.05;;
21593;SDS011;10959;51.328;7.322;2023-06-19T12:33:28;6.28;;;2.97;;
21593;SDS011;10959;51.328;7.322;2023-06-19T12:35:56;4.65;;;3.20;;
21593;SDS011;10959;51.328;7.322;2023-06-19T12:38:22;4.38;;;3.25;;
21593;SDS011;10959;51.328;7.322;2023-06-19T12:40:49;4.70;;;2.95;;
21593;SDS011;10959;51.328;7.322;2023-06-19T12:43:15;6.07;;;3.50;;
21593;SDS011;10959;51.328;7.322;2023-06-19T12:45:42;4.22;;;3.03;;
21593;SDS011;10959;51.328;7.322;2023-06-19T12:48:11;3.63;;;2.72;;
21593;SDS011;10959;51.328;7.322;2023-06-19T12:50:37;3.60;;;2.75;;
21593;SDS011;10959;51.328;7.322;2023-06-19T12:53:04;3.08;;;2.75;;
21593;SDS011;10959;51.328;7.322;2023-06-19T12:55:30;2.85;;;2.53;;
21593;SDS011;10959;51.328;7.322;2023-06-19T12:57:57;4.95;;;3.40;;
21593;SDS011;10959;51.328;7.322;2023-06-19T13:00:23;3.55;;;3.08;;
21593;SDS011;10959;51.328;7.322;2023-06-19T13:02:49;3.85;;;3.15;;
21593;SDS011;10959;51.328;7.322;2023-06-19T13:05:17;3.08;;;2.65;;
21593;SDS011;10959;51.328;7.322;2023-06-19T13:07:44;4.68;;;2.88;;
21593;SDS011;10959;51.328;7.322;2023-06-19T13:10:10;4.03;;;2.85;;
21593;SDS011;10959;51.328;7.322;2023-06-19T13:12:37;4.07;;;2.80;;
21593;SDS011;10959;51.328;7.322;2023-06-19T13:15:03;3.42;;;2.65;;
21593;SDS011;10959;51.328;7.322;2023-06-19T13:17:31;5.95;;;3.22;;
21593;SDS011;10959;51.328;7.322;2023-06-19T13:19:57;4.60;;;3.10;;
21593;SDS011;10959;51.328;7.322;2023-06-19T13:22:25;4.18;;;3.03;;
21593;SDS011;10959;51.328;7.322;2023-06-19T13:24:52;4.45;;;2.97;;
21593;SDS011;10959;51.328;7.322;2023-06-19T13:27:18;5.90;;;3.05;;
21593;SDS011;10959;51.328;7.322;2023-06-19T13:29:45;3.35;;;2.45;;
21593;SDS011;10959;51.328;7.322;2023-06-19T13:32:11;5.03;;;3.42;;
21593;SDS011;10959;51.328;7.322;2023-06-19T13:34:38;3.83;;;3.40;;
21593;SDS011;10959;51.328;7.322;2023-06-19T13:37:04;4.47;;;3.35;;
21593;SDS011;10959;51.328;7.322;2023-06-19T13:39:32;3.78;;;2.92;;
21593;SDS011;10959;51.328;7.322;2023-06-19T13:41:58;4.40;;;3.38;;
21593;SDS011;10959;51.328;7.322;2023-06-19T13:44:26;5.35;;;2.90;;
21593;SDS011;10959;51.328;7.322;2023-06-19T13:46:53;4.97;;;3.40;;
21593;SDS011;10959;51.328;7.322;2023-06-19T13:49:20;5.15;;;3.20;;
21593;SDS011;10959;51.328;7.322;2023-06-19T13:51:47;4.15;;;3.13;;
21593;SDS011;10959;51.328;7.322;2023-06-19T13:54:13;4.57;;;3.15;;
21593;SDS011;10959;51.328;7.322;2023-06-19T13:56:41;5.25;;;3.20;;
21593;SDS011;10959;51.328;7.322;2023-06-19T13:59:08;3.67;;;2.92;;
21593;SDS011;10959;51.328;7.322;2023-06-19T14:01:34;4.28;;;3.63;;
21593;SDS011;10959;51.328;7.322;2023-06-19T14:04:01;4.22;;;2.67;;
21593;SDS011;10959;51.328;7.322;2023-06-19T14:06:27;4.80;;;2.50;;
21593;SDS011;10959;51.328;7.322;2023-06-19T14:08:54;4.10;;;2.78;;
21593;SDS011;10959;51.328;7.322;2023-06-19T14:11:20;3.33;;;2.95;;
21593;SDS011;10959;51.328;7.322;2023-06-19T14:13:48;3.63;;;2.78;;
21593;SDS011;10959;51.328;7.322;2023-06-19T14:16:15;2.95;;;2.65;;
21593;SDS011;10959;51.328;7.322;2023-06-19T14:18:41;3.90;;;2.47;;
21593;SDS011;10959;51.328;7.322;2023-06-19T14:21:08;3.13;;;2.47;;
21593;SDS011;10959;51.328;7.322;2023-06-19T14:23:34;4.10;;;2.78;;
21593;SDS011;10959;51.328;7.322;2023-06-19T14:26:05;3.15;;;2.55;;
21593;SDS011;10959;51.328;7.322;2023-06-19T14:28:31;4.72;;;3.13;;
21593;SDS011;10959;51.328;7.322;2023-06-19T14:30:59;3.85;;;3.20;;
21593;SDS011;10959;51.328;7.322;2023-06-19T14:33:25;4.28;;;2.75;;
21593;SDS011;10959;51.328;7.322;2023-06-19T14:35:52;3.95;;;3.15;;
21593;SDS011;10959;51.328;7.322;2023-06-19T14:38:18;3.40;;;3.10;;
21593;SDS011;10959;51.328;7.322;2023-06-19T14:40:45;4.38;;;2.88;;
21593;SDS011;10959;51.328;7.322;2023-06-19T14:43:12;4.45;;;2.72;;
21593;SDS011;10959;51.328;7.322;2023-06-19T14:45:38;2.90;;;2.70;;
21593;SDS011;10959;51.328;7.322;2023-06-19T14:48:07;3.80;;;3.30;;